EST,Max TemperatureF,Mean TemperatureF,Min TemperatureF,Max Dew PointF,MeanDew PointF,Min DewpointF,Max Humidity, Mean Humidity, Min Humidity, Max Sea Level PressureIn, Mean Sea Level PressureIn, Min Sea Level PressureIn, Max VisibilityMiles, Mean VisibilityMiles, Min VisibilityMiles, Max Wind SpeedMPH, Mean Wind SpeedMPH, Max Gust SpeedMPH,PrecipitationIn, CloudCover, Events, WindDirDegrees
2013-2-1,27,19,10,21,9,0,84,67,49,30.44,30.15,29.89,10,5,0,23,10,33,0.03,7,Fog-Snow,271
2013-2-2,27,18,8,25,17,3,92,77,62,30.41,30.12,30.02,10,4,0,16,6,21,0.04,7,Fog-Snow,190
2013-2-3,28,25,22,25,20,11,92,76,59,30.15,29.97,29.89,10,5,0,18,7,24,0.02,8,Fog-Snow,248
2013-2-4,34,26,17,32,24,12,96,77,58,30.16,29.96,29.89,10,4,0,13,5,17,0.17,8,Fog-Rain-Snow,170
2013-2-5,36,34,32,34,31,28,100,88,75,30.02,29.92,29.88,7,3,1,16,4,23,0.04,8,Rain-Snow,258
2013-2-6,35,30,25,28,25,22,89,74,59,30.34,30.24,30.02,8,7,4,12,2,17,0.00,6,,287
2013-2-7,50,38,25,34,29,22,92,71,49,30.33,30.15,29.96,10,8,4,12,5,16,0.00,2,,91
2013-2-8,44,37,29,39,30,19,93,79,65,30.30,30.01,29.83,10,8,3,24,11,31,0.12,7,Rain,268
2013-2-9,38,31,24,19,16,13,75,56,37,30.48,30.40,30.32,10,10,6,14,3,20,0.00,4,,320
2013-2-10,59,41,23,37,23,18,81,53,24,30.35,30.16,29.94,10,10,8,20,5,29,0.02,3,Rain,121
2013-2-11,62,53,43,47,35,24,77,51,25,30.03,29.88,29.79,10,10,9,30,13,44,0.01,4,,220
2013-2-12,50,40,30,25,23,19,64,47,29,30.17,30.06,29.97,10,10,8,21,6,28,0.00,1,,259
2013-2-13,41,35,28,31,27,22,92,73,54,29.96,29.83,29.72,10,6,0,12,4,16,0.14,7,Fog-Snow,290
2013-2-14,48,38,28,34,29,25,92,73,53,30.01,29.97,29.91,10,8,5,20,8,26,0.00,5,,187
2013-2-15,42,36,30,34,30,26,92,76,59,30.13,30.08,30.01,10,7,1,16,4,23,0.08,7,Rain-Snow,241
2013-2-16,32,27,22,28,18,10,88,66,43,30.13,30.06,30.01,10,8,2,21,6,26,0.01,7,Snow,303
2013-2-17,26,20,13,14,7,3,73,56,38,30.32,30.18,30.04,10,9,2,18,8,26,T,6,Snow,281
2013-2-18,52,31,10,29,18,7,84,59,33,30.35,30.17,29.89,10,9,5,17,6,25,0.00,0,,150
2013-2-19,49,38,27,37,28,14,85,61,36,30.09,29.88,29.78,10,9,4,26,15,41,0.08,8,Rain,238
2013-2-20,27,24,21,18,12,9,74,62,50,30.33,30.23,30.10,10,8,1,21,11,30,T,8,Snow,282
2013-2-21,34,28,21,16,13,10,71,59,47,30.41,30.33,30.23,10,10,8,14,6,17,0.00,4,,319
2013-2-22,54,41,27,42,31,16,92,75,58,30.27,30.05,29.97,10,8,3,16,4,22,0.06,8,Rain,92
2013-2-23,49,40,31,37,33,25,92,71,50,30.01,29.95,29.89,10,8,4,13,3,17,0.00,5,,306
2013-2-24,37,30,23,25,21,17,85,69,52,30.22,30.10,29.95,10,8,6,16,5,22,0.00,4,,291
2013-2-25,47,32,17,22,19,15,91,64,37,30.27,30.17,30.03,10,8,4,13,4,17,0.00,0,,64
2013-2-26,45,38,30,42,33,21,96,76,56,30.03,29.72,29.55,10,8,3,18,7,24,0.73,6,Rain,81
2013-2-27,45,40,34,43,35,28,85,78,70,29.77,29.68,29.57,10,10,5,17,8,28,0.07,8,Rain,221
2013-2-28,36,35,33,33,30,28,92,87,82,29.91,29.78,29.70,10,7,2,14,8,20,0.02,8,Rain-Snow,243